Time;durP1;ratioP1;P1;durP2;ratioP2;P2;SDS_P1;SDS_P2;PMS_P1;PMS_P2;Temp;Humidity;BMP_temperature;BMP_pressure;BME280_temperature;BME280_humidity;BME280_pressure;Samples;Min_cycle;Max_cycle;Signal;HPM_P1;HPM_P2
2023/12/20 00:00:08;;;;;;;;;;;;;;;4.97;100.00;101535.38;5036160;28;19971;-78
2023/12/20 00:02:33;;;;;;;;;;;;;;;4.92;100.00;101538.72;5043533;28;19928;-77
2023/12/20 00:04:58;;;;;;;;;;;;;;;4.88;100.00;101547.28;5048096;28;19928;-78
2023/12/20 00:07:24;;;;;;;;;;;;;;;4.83;100.00;101550.66;5036462;28;20445;-79
2023/12/20 00:09:50;;;;;;;;;;;;;;;4.79;100.00;101545.34;5052563;28;20055;-78
2023/12/20 00:12:15;;;;;;;;;;;;;;;4.76;100.00;101546.16;5039650;28;19928;-78
2023/12/20 00:14:41;;;;;;;;;;;;;;;4.69;100.00;101552.91;5052681;28;19925;-78
2023/12/20 00:17:06;;;;;;;;;;;;;;;4.64;100.00;101557.13;5040781;28;20023;-77
2023/12/20 00:19:31;;;;;;;;;;;;;;;4.60;100.00;101557.03;5064485;28;20090;-77
2023/12/20 00:21:56;;;;;;;;;;;;;;;4.57;100.00;101559.53;5039473;28;20389;-77
2023/12/20 00:24:22;;;;;;;;;;;;;;;4.51;100.00;101561.16;5054111;28;20386;-78
2023/12/20 00:26:47;;;;;;;;;;;;;;;4.48;100.00;101563.66;5044905;28;20030;-78
2023/12/20 00:29:13;;;;;;;;;;;;;;;4.44;100.00;101561.84;5045575;28;19925;-77
2023/12/20 00:31:38;;;;;;;;;;;;;;;4.41;100.00;101553.97;5064408;28;19917;-78
2023/12/20 00:34:03;;;;;;;;;;;;;;;4.41;100.00;101558.25;5059853;28;20294;-78
2023/12/20 00:36:28;;;;;;;;;;;;;;;4.44;100.00;101553.16;5042236;28;19971;-77
2023/12/20 00:38:55;;;;;;;;;;;;;;;4.47;100.00;101553.25;5060349;28;19940;-77
2023/12/20 00:41:20;;;;;;;;;;;;;;;4.46;100.00;101544.56;5036835;28;19925;-77
2023/12/20 00:43:48;;;;;;;;;;;;;;;4.43;100.00;101549.69;5037987;28;20007;-77
2023/12/20 00:46:14;;;;;;;;;;;;;;;4.37;100.00;101544.34;5050082;28;19923;-77
2023/12/20 00:48:42;;;;;;;;;;;;;;;4.31;100.00;101546.78;5053599;28;19928;-76
2023/12/20 00:51:07;;;;;;;;;;;;;;;4.22;100.00;101550.00;5051126;28;20347;-76
2023/12/20 00:53:33;;;;;;;;;;;;;;;4.16;100.00;101544.69;5038391;28;19959;-78
2023/12/20 00:55:58;;;;;;;;;;;;;;;4.08;100.00;101538.41;5037206;28;19928;-78
2023/12/20 00:58:24;;;;;;;;;;;;;;;4.01;100.00;101542.56;5034915;28;19928;-77
2023/12/20 01:00:49;;;;;;;;;;;;;;;3.94;100.00;101545.84;5042220;28;19928;-78
2023/12/20 01:03:15;;;;;;;;;;;;;;;3.89;100.00;101550.00;5049939;28;19925;-77
2023/12/20 01:05:40;;;;;;;;;;;;;;;3.83;100.00;101552.44;5033173;28;19932;-78
2023/12/20 01:08:06;;;;;;;;;;;;;;;3.75;100.00;101550.53;5034397;28;20275;-78
2023/12/20 01:10:31;;;;;;;;;;;;;;;3.72;100.00;101549.53;5050467;28;20426;-78
2023/12/20 01:12:57;;;;;;;;;;;;;;;3.74;100.00;101553.06;5032970;28;20271;-78
2023/12/20 01:15:23;;;;;;;;;;;;;;;3.78;100.00;101558.38;5051392;28;19975;-78
2023/12/20 01:17:51;;;;;;;;;;;;;;;3.77;100.00;101548.84;5040406;28;19921;-77
2023/12/20 01:20:16;;;;;;;;;;;;;;;3.74;100.00;101547.91;5058479;28;19916;-78
2023/12/20 01:22:42;;;;;;;;;;;;;;;3.70;100.00;101546.91;5045973;28;19931;-77
2023/12/20 01:25:08;;;;;;;;;;;;;;;3.66;100.00;101542.47;5034053;28;20302;-78
2023/12/20 01:27:33;;;;;;;;;;;;;;;3.68;100.00;101548.59;5054903;28;19928;-77
2023/12/20 01:29:58;;;;;;;;;;;;;;;3.73;100.00;101552.19;5039302;28;19993;-78
2023/12/20 01:32:24;;;;;;;;;;;;;;;3.79;100.00;101552.38;5050026;28;20007;-76
2023/12/20 01:34:49;;;;;;;;;;;;;;;3.81;100.00;101550.69;5043584;28;20365;-77
2023/12/20 01:37:14;;;;;;;;;;;;;;;3.80;100.00;101541.13;5066540;28;19935;-77
2023/12/20 01:39:41;;;;;;;;;;;;;;;3.78;100.00;101560.97;5037260;28;20306;-77
2023/12/20 01:42:07;;;;;;;;;;;;;;;3.79;100.00;101554.97;5035279;28;19925;-77
2023/12/20 01:44:32;;;;;;;;;;;;;;;3.76;100.00;101552.25;5033124;28;19925;-77
2023/12/20 01:46:57;;;;;;;;;;;;;;;3.74;100.00;101543.56;5050174;28;19917;-77
2023/12/20 01:49:23;;;;;;;;;;;;;;;3.70;100.00;101533.94;5033626;28;20397;-77
2023/12/20 01:51:50;;;;;;;;;;;;;;;3.68;100.00;101543.41;5054095;28;19928;-77
2023/12/20 01:54:15;;;;;;;;;;;;;;;3.66;100.00;101544.19;5054436;28;19925;-77
2023/12/20 01:56:41;;;;;;;;;;;;;;;3.64;100.00;101547.63;5042026;28;19925;-77
2023/12/20 01:59:07;;;;;;;;;;;;;;;3.60;100.00;101550.09;5039650;28;20525;-76
2023/12/20 02:01:33;;;;;;;;;;;;;;;3.55;100.00;101546.47;5037491;28;20310;-77
2023/12/20 02:03:59;;;;;;;;;;;;;;;3.52;100.00;101554.16;5053916;28;19920;-77
2023/12/20 02:06:26;;;;;;;;;;;;;;;3.49;100.00;101547.19;5046533;28;19921;-77
2023/12/20 02:08:52;;;;;;;;;;;;;;;3.45;100.00;101540.19;5055685;28;19931;-77
2023/12/20 02:11:17;;;;;;;;;;;;;;;3.40;100.00;101542.63;5038206;28;19925;-76
2023/12/20 02:13:43;;;;;;;;;;;;;;;3.36;100.00;101551.16;5041705;28;19920;-76
2023/12/20 02:16:08;;;;;;;;;;;;;;;3.32;100.00;101554.50;5039908;28;20255;-76
2023/12/20 02:18:33;;;;;;;;;;;;;;;3.28;100.00;101556.09;5047967;28;20401;-76
2023/12/20 02:20:59;;;;;;;;;;;;;;;3.34;100.00;101555.41;5060252;28;19916;-75
2023/12/20 02:23:24;;;;;;;;;;;;;;;3.37;100.00;101564.97;5047764;28;20313;-76
2023/12/20 02:25:49;;;;;;;;;;;;;;;3.38;100.00;101553.78;5060490;28;19925;-78
2023/12/20 02:28:15;;;;;;;;;;;;;;;3.38;100.00;101549.47;5053056;28;19916;-76
2023/12/20 02:30:40;;;;;;;;;;;;;;;3.35;100.00;101556.25;5053271;28;19921;-77
2023/12/20 02:33:08;;;;;;;;;;;;;;;3.32;100.00;101551.00;5032798;28;19928;-77
2023/12/20 02:35:36;;;;;;;;;;;;;;;3.32;100.00;101546.72;5064758;28;19920;-77
2023/12/20 02:38:01;;;;;;;;;;;;;;;3.31;100.00;101550.13;5039254;28;20010;-77
2023/12/20 02:40:29;;;;;;;;;;;;;;;3.28;100.00;101553.50;5038017;28;19964;-77
2023/12/20 02:42:55;;;;;;;;;;;;;;;3.27;100.00;101553.47;5055765;28;19916;-77
2023/12/20 02:45:21;;;;;;;;;;;;;;;3.29;100.00;101554.41;5060573;28;20299;-77
2023/12/20 02:47:46;;;;;;;;;;;;;;;3.33;100.00;101545.84;5043947;28;19921;-77
2023/12/20 02:50:11;;;;;;;;;;;;;;;3.38;100.00;101546.88;5021133;28;19931;-77
2023/12/20 02:52:37;;;;;;;;;;;;;;;3.41;100.00;101538.31;5037243;28;19931;-77
2023/12/20 02:55:02;;;;;;;;;;;;;;;3.40;100.00;101542.63;5036043;28;20367;-77
2023/12/20 02:57:27;;;;;;;;;;;;;;;3.39;100.00;101542.56;5041323;28;19960;-77
2023/12/20 02:59:53;;;;;;;;;;;;;;;3.38;100.00;101538.25;5028388;28;20019;-77
2023/12/20 03:02:18;;;;;;;;;;;;;;;3.35;100.00;101541.63;5289914;22;20016;-77
2023/12/20 03:04:43;;;;;;;;;;;;;;;3.35;100.00;101536.44;5035655;28;20344;-75
2023/12/20 03:09:40;;;;;;;;;;;;;;;3.38;100.00;101539.13;5102535;28;19928;-76
2023/12/20 03:12:06;;;;;;;;;;;;;;;3.40;100.00;101528.78;5112335;22;19935;-77
2023/12/20 03:14:31;;;;;;;;;;;;;;;3.41;100.00;101527.97;5094268;27;20312;-77
2023/12/20 03:16:57;;;;;;;;;;;;;;;3.42;100.00;101529.69;5175554;22;19946;-77
2023/12/20 03:19:22;;;;;;;;;;;;;;;3.44;100.00;101526.31;5054719;28;20019;-76
2023/12/20 03:21:47;;;;;;;;;;;;;;;3.46;100.00;101518.59;5073289;28;20368;-77
2023/12/20 03:24:13;;;;;;;;;;;;;;;3.49;100.00;101520.41;5042421;28;21047;-76
2023/12/20 03:26:38;;;;;;;;;;;;;;;3.54;100.00;101511.06;5050868;28;19964;-76
2023/12/20 03:29:03;;;;;;;;;;;;;;;3.56;100.00;101517.13;5053942;28;20008;-76
2023/12/20 03:31:29;;;;;;;;;;;;;;;3.59;100.00;101512.03;5067881;28;20007;-76
2023/12/20 03:33:54;;;;;;;;;;;;;;;3.67;100.00;101526.09;5046663;28;19944;-76
2023/12/20 03:36:20;;;;;;;;;;;;;;;3.73;100.00;101522.78;5121769;22;20295;-76
2023/12/20 03:38:45;;;;;;;;;;;;;;;3.76;100.00;101523.75;5083683;28;19928;-77
2023/12/20 03:41:11;;;;;;;;;;;;;;;3.78;100.00;101519.50;5069008;28;19979;-77
2023/12/20 03:43:36;;;;;;;;;;;;;;;3.73;100.00;101526.25;5040380;28;20381;-78
2023/12/20 03:46:03;;;;;;;;;;;;;;;3.70;100.00;101512.34;5055243;28;19962;-77
2023/12/20 03:48:28;;;;;;;;;;;;;;;3.69;100.00;101510.59;5053393;28;20374;-77
2023/12/20 03:50:54;;;;;;;;;;;;;;;3.68;100.00;101504.53;5041584;28;19927;-77
2023/12/20 03:53:19;;;;;;;;;;;;;;;3.70;100.00;101507.16;5052497;28;19932;-78
2023/12/20 03:55:44;;;;;;;;;;;;;;;3.73;100.00;101500.31;5053694;28;20365;-77
2023/12/20 03:58:10;;;;;;;;;;;;;;;3.76;100.00;101515.97;5070416;28;20411;-77
2023/12/20 04:00:36;;;;;;;;;;;;;;;3.79;100.00;101510.88;5067166;28;20289;-77
2023/12/20 04:03:03;;;;;;;;;;;;;;;3.81;100.00;101514.38;5063142;28;19927;-77
2023/12/20 04:05:28;;;;;;;;;;;;;;;3.86;100.00;101513.63;5046098;28;19928;-75
2023/12/20 04:07:54;;;;;;;;;;;;;;;3.91;100.00;101520.69;5044898;28;19921;-75
2023/12/20 04:10:19;;;;;;;;;;;;;;;3.99;100.00;101528.66;5068849;28;20379;-76
2023/12/20 04:12:44;;;;;;;;;;;;;;;4.04;100.00;101527.09;5053883;28;20404;-76
2023/12/20 04:15:11;;;;;;;;;;;;;;;4.09;100.00;101530.66;5053283;28;19940;-76
2023/12/20 04:17:39;;;;;;;;;;;;;;;4.16;100.00;101523.94;5043767;28;20376;-76
2023/12/20 04:20:05;;;;;;;;;;;;;;;4.21;100.00;101518.84;5064488;28;19947;-77
2023/12/20 04:22:30;;;;;;;;;;;;;;;4.24;100.00;101518.91;5059268;28;19924;-76
2023/12/20 04:24:55;;;;;;;;;;;;;;;4.27;100.00;101519.88;5066352;28;20396;-75
2023/12/20 04:27:21;;;;;;;;;;;;;;;4.30;100.00;101514.78;5076107;28;19920;-77
2023/12/20 04:29:46;;;;;;;;;;;;;;;4.34;100.00;101518.34;5062144;28;19917;-76
2023/12/20 04:32:11;;;;;;;;;;;;;;;4.38;100.00;101527.06;5052404;28;19931;-76
2023/12/20 04:34:37;;;;;;;;;;;;;;;4.39;100.00;101521.03;5080369;28;19917;-77
2023/12/20 04:37:02;;;;;;;;;;;;;;;4.41;100.00;101512.47;5064245;28;19921;-78
2023/12/20 04:39:27;;;;;;;;;;;;;;;4.44;100.00;101517.72;5091111;28;19916;-76
2023/12/20 04:41:53;;;;;;;;;;;;;;;4.47;100.00;101511.72;5040729;28;19985;-78
2023/12/20 04:44:18;;;;;;;;;;;;;;;4.48;100.00;101509.16;5045814;28;20019;-77
2023/12/20 04:46:44;;;;;;;;;;;;;;;4.50;100.00;101504.88;5051313;28;19991;-76
2023/12/20 04:49:09;;;;;;;;;;;;;;;4.51;100.00;101509.22;5040094;28;19927;-76
2023/12/20 04:51:34;;;;;;;;;;;;;;;4.55;100.00;101499.78;5072680;28;19923;-77
2023/12/20 04:54:00;;;;;;;;;;;;;;;4.58;100.00;101514.56;5080850;28;19920;-75
2023/12/20 04:56:25;;;;;;;;;;;;;;;4.58;100.00;101520.63;5050450;28;19971;-76
2023/12/20 04:58:50;;;;;;;;;;;;;;;4.61;100.00;101528.50;5052389;28;20034;-75
2023/12/20 05:01:16;;;;;;;;;;;;;;;4.64;100.00;101520.78;5072115;28;20389;-78
2023/12/20 05:03:42;;;;;;;;;;;;;;;4.66;100.00;101510.44;5065842;28;19999;-76
2023/12/20 05:06:07;;;;;;;;;;;;;;;4.72;100.00;101520.94;5062056;28;19927;-78
2023/12/20 05:08:33;;;;;;;;;;;;;;;4.73;100.00;101514.06;5045491;28;20401;-77
2023/12/20 05:10:59;;;;;;;;;;;;;;;4.75;100.00;101510.63;5049737;28;19936;-78
2023/12/20 05:13:24;;;;;;;;;;;;;;;4.76;100.00;101507.19;5067818;28;20365;-78
2023/12/20 05:15:50;;;;;;;;;;;;;;;4.78;100.00;101505.50;5063548;28;20392;-77
2023/12/20 05:18:16;;;;;;;;;;;;;;;4.80;100.00;101501.25;5037887;28;19936;-77
2023/12/20 05:20:41;;;;;;;;;;;;;;;4.83;100.00;101500.44;5050474;28;20267;-78
2023/12/20 05:23:06;;;;;;;;;;;;;;;4.85;100.00;101498.75;5059706;28;19923;-78
2023/12/20 05:25:32;;;;;;;;;;;;;;;4.86;100.00;101498.78;5063082;28;19924;-77
2023/12/20 05:27:57;;;;;;;;;;;;;;;4.88;100.00;101509.19;5068319;28;19959;-77
2023/12/20 05:30:22;;;;;;;;;;;;;;;4.91;100.00;101503.19;5050358;28;19924;-77
2023/12/20 05:32:51;;;;;;;;;;;;;;;4.97;100.00;101498.13;5059990;28;19920;-77
2023/12/20 05:35:17;;;;;;;;;;;;;;;4.92;100.00;101491.97;5064071;28;20373;-78
2023/12/20 05:37:42;;;;;;;;;;;;;;;4.94;100.00;101492.88;5043857;28;19924;-77
2023/12/20 05:40:11;;;;;;;;;;;;;;;4.95;100.00;101492.03;5057969;28;19927;-77
2023/12/20 05:42:37;;;;;;;;;;;;;;;4.94;100.00;101495.47;5065008;28;19962;-78
2023/12/20 05:45:03;;;;;;;;;;;;;;;5.01;100.00;101506.03;5051484;28;20290;-78
2023/12/20 05:47:28;;;;;;;;;;;;;;;4.96;100.00;101496.41;5063749;28;19924;-78
2023/12/20 05:49:53;;;;;;;;;;;;;;;4.99;100.00;101501.66;5050122;28;20398;-78
2023/12/20 05:52:19;;;;;;;;;;;;;;;4.99;100.00;101496.47;5077880;28;20487;-77
2023/12/20 05:54:44;;;;;;;;;;;;;;;4.97;100.00;101495.53;5065280;28;19931;-78
2023/12/20 05:57:10;;;;;;;;;;;;;;;4.97;100.00;101498.13;5094535;28;20291;-78
2023/12/20 05:59:35;;;;;;;;;;;;;;;4.94;100.00;101498.97;5053634;28;20026;-77
2023/12/20 06:02:03;;;;;;;;;;;;;;;4.90;100.00;101506.63;5057511;28;19940;-77
2023/12/20 06:04:29;;;;;;;;;;;;;;;4.85;100.00;101510.00;5071523;28;19916;-78
2023/12/20 06:06:54;;;;;;;;;;;;;;;4.80;100.00;101514.22;5067902;28;19921;-77
2023/12/20 06:09:19;;;;;;;;;;;;;;;4.71;100.00;101510.53;5037114;28;20024;-78
2023/12/20 06:11:45;;;;;;;;;;;;;;;4.64;100.00;101509.50;5046482;28;20386;-78
2023/12/20 06:14:11;;;;;;;;;;;;;;;4.65;100.00;101511.25;5056694;28;20512;-75
2023/12/20 06:16:36;;;;;;;;;;;;;;;4.67;100.00;101513.06;5055777;28;19928;-78
2023/12/20 06:19:01;;;;;;;;;;;;;;;4.71;100.00;101513.13;5072303;28;20312;-78
2023/12/20 06:21:26;;;;;;;;;;;;;;;4.67;100.00;101505.28;5052216;28;19921;-77
2023/12/20 06:23:52;;;;;;;;;;;;;;;4.73;100.00;101519.25;5058334;28;20015;-75
2023/12/20 06:26:17;;;;;;;;;;;;;;;4.71;100.00;101521.78;5070007;28;20019;-77
2023/12/20 06:28:42;;;;;;;;;;;;;;;4.71;100.00;101519.19;5056910;28;20033;-76
2023/12/20 06:31:10;;;;;;;;;;;;;;;4.71;100.00;101520.91;5070827;28;19943;-76
2023/12/20 06:33:35;;;;;;;;;;;;;;;4.67;100.00;101515.66;5067553;28;19924;-76
2023/12/20 06:36:01;;;;;;;;;;;;;;;4.66;100.00;101515.63;5073685;28;20099;-78
2023/12/20 06:38:26;;;;;;;;;;;;;;;4.62;100.00;101512.06;5063954;28;20386;-77
2023/12/20 06:40:52;;;;;;;;;;;;;;;4.61;100.00;101512.03;5064961;28;19917;-77
2023/12/20 06:43:17;;;;;;;;;;;;;;;4.57;100.00;101507.59;5049006;28;20023;-77
2023/12/20 06:45:42;;;;;;;;;;;;;;;4.58;100.00;101506.78;5055610;28;19951;-76
2023/12/20 06:48:08;;;;;;;;;;;;;;;4.57;100.00;101516.28;5053456;28;20370;-76
2023/12/20 06:50:33;;;;;;;;;;;;;;;4.58;100.00;101506.78;5046747;28;19924;-77
2023/12/20 06:53:06;;;;;;;;;;;;;;;4.58;100.00;101515.44;5056100;28;19923;-77
2023/12/20 06:55:32;;;;;;;;;;;;;;;4.58;100.00;101514.56;5056812;28;19969;-75
2023/12/20 06:57:57;;;;;;;;;;;;;;;4.59;100.00;101512.00;5054509;28;20324;-76
2023/12/20 07:00:22;;;;;;;;;;;;;;;4.62;100.00;101512.06;5050226;28;19995;-76
2023/12/20 07:02:49;;;;;;;;;;;;;;;4.62;100.00;101513.78;5051614;28;19946;-78
2023/12/20 07:05:19;;;;;;;;;;;;;;;4.61;100.00;101514.63;5064672;28;19920;-75
2023/12/20 07:07:45;;;;;;;;;;;;;;;4.60;100.00;101511.16;5070559;28;20113;-76
2023/12/20 07:10:13;;;;;;;;;;;;;;;4.61;100.00;101509.44;5072256;28;20398;-77
2023/12/20 07:12:39;;;;;;;;;;;;;;;4.58;100.00;101504.19;5055322;28;19946;-78
2023/12/20 07:15:05;;;;;;;;;;;;;;;4.59;100.00;101511.13;5072925;28;20357;-77
2023/12/20 07:17:33;;;;;;;;;;;;;;;4.57;100.00;101505.00;5064456;28;20405;-78
2023/12/20 07:19:58;;;;;;;;;;;;;;;4.57;100.00;101512.78;5064514;28;20269;-76
2023/12/20 07:22:23;;;;;;;;;;;;;;;4.57;100.00;101507.59;5049873;28;19931;-76
2023/12/20 07:24:49;;;;;;;;;;;;;;;4.61;100.00;101504.25;5052782;28;19959;-75
2023/12/20 07:27:15;;;;;;;;;;;;;;;4.59;100.00;101500.75;5059457;28;20395;-75
2023/12/20 07:29:42;;;;;;;;;;;;;;;4.58;100.00;101504.19;5050588;28;19928;-78
2023/12/20 07:32:08;;;;;;;;;;;;;;;4.54;100.00;101507.53;5049936;28;19924;-75
2023/12/20 07:34:33;;;;;;;;;;;;;;;4.58;100.00;101506.78;5073086;28;20504;-76
2023/12/20 07:36:59;;;;;;;;;;;;;;;4.59;100.00;101498.16;5052851;28;19925;-75
2023/12/20 07:39:24;;;;;;;;;;;;;;;4.55;100.00;101502.38;5036671;28;20361;-76
2023/12/20 07:41:49;;;;;;;;;;;;;;;4.55;100.00;101496.31;5036648;28;19924;-77
2023/12/20 07:44:15;;;;;;;;;;;;;;;4.53;100.00;101495.44;5040644;28;20333;-77
2023/12/20 07:46:41;;;;;;;;;;;;;;;4.54;100.00;101497.16;5054283;28;19979;-77
2023/12/20 07:49:08;;;;;;;;;;;;;;;4.54;100.00;101499.75;5052128;28;20301;-77
2023/12/20 07:51:33;;;;;;;;;;;;;;;4.55;100.00;101491.13;5045345;28;20376;-77
2023/12/20 07:53:58;;;;;;;;;;;;;;;4.56;100.00;101474.72;5036708;28;20003;-77
2023/12/20 07:56:24;;;;;;;;;;;;;;;4.58;100.00;101491.19;5051832;28;20031;-77
2023/12/20 07:58:50;;;;;;;;;;;;;;;4.58;100.00;101488.59;5036516;28;19983;-77
2023/12/20 08:01:16;;;;;;;;;;;;;;;4.62;100.00;101487.84;5064227;28;19927;-77
2023/12/20 08:03:41;;;;;;;;;;;;;;;4.61;100.00;101494.75;5069851;28;20339;-75
2023/12/20 08:06:09;;;;;;;;;;;;;;;4.64;100.00;101489.63;5047319;28;19931;-76
2023/12/20 08:08:34;;;;;;;;;;;;;;;4.65;100.00;101496.56;5054188;28;20015;-75
2023/12/20 08:11:00;;;;;;;;;;;;;;;4.67;100.00;101517.38;5060148;28;20474;-75
2023/12/20 08:13:25;;;;;;;;;;;;;;;4.68;100.00;101514.84;5054557;28;20014;-74
2023/12/20 08:15:54;;;;;;;;;;;;;;;4.75;100.00;101510.63;5043761;28;19927;-75
2023/12/20 08:18:19;;;;;;;;;;;;;;;4.76;100.00;101517.59;5065821;28;20436;-74
2023/12/20 08:20:47;;;;;;;;;;;;;;;4.76;100.00;101509.81;5068471;28;19924;-75
2023/12/20 08:23:12;;;;;;;;;;;;;;;4.82;100.00;101520.31;5054813;28;19920;-75
2023/12/20 08:25:37;;;;;;;;;;;;;;;4.83;100.00;101521.22;5054749;28;19917;-76
2023/12/20 08:28:04;;;;;;;;;;;;;;;4.85;100.00;101522.97;5050237;28;20286;-77
2023/12/20 08:30:30;;;;;;;;;;;;;;;4.93;100.00;101527.47;5065739;28;19938;-77
2023/12/20 08:32:56;;;;;;;;;;;;;;;4.96;100.00;101524.97;5053050;28;19966;-75
2023/12/20 08:35:22;;;;;;;;;;;;;;;5.01;100.00;101523.31;5068984;28;19960;-75
2023/12/20 08:37:48;;;;;;;;;;;;;;;5.00;100.00;101519.00;5035682;28;19956;-75
2023/12/20 08:40:13;;;;;;;;;;;;;;;5.03;100.00;101526.84;5050303;28;20273;-75
2023/12/20 08:42:41;;;;;;;;;;;;;;;5.05;100.00;101529.47;5042417;28;20015;-75
2023/12/20 08:45:07;;;;;;;;;;;;;;;5.10;100.00;101523.56;5052054;28;19920;-77
2023/12/20 08:47:33;;;;;;;;;;;;;;;5.14;100.00;101519.28;5064827;28;19917;-75
2023/12/20 08:49:59;;;;;;;;;;;;;;;5.16;100.00;101508.09;5047030;28;19946;-75
2023/12/20 08:52:27;;;;;;;;;;;;;;;5.20;100.00;101501.22;5036183;28;19932;-76
2023/12/20 08:54:53;;;;;;;;;;;;;;;5.23;100.00;101501.31;5065006;28;19928;-76
2023/12/20 08:57:20;;;;;;;;;;;;;;;5.22;100.00;101493.47;5054386;28;20011;-76
2023/12/20 08:59:45;;;;;;;;;;;;;;;5.26;100.00;101485.78;5068668;28;20437;-75
2023/12/20 09:02:12;;;;;;;;;;;;;;;5.28;100.00;101488.41;5052714;28;20004;-78
2023/12/20 09:04:38;;;;;;;;;;;;;;;5.32;100.00;101490.22;5040795;28;20203;-77
2023/12/20 09:07:03;;;;;;;;;;;;;;;5.33;100.00;101497.16;5052187;28;19974;-78
2023/12/20 09:09:29;;;;;;;;;;;;;;;5.37;100.00;101488.56;5045565;28;19970;-75
2023/12/20 09:11:54;;;;;;;;;;;;;;;5.40;100.00;101504.22;5034426;28;19932;-77
2023/12/20 09:14:20;;;;;;;;;;;;;;;5.41;100.00;101508.59;5065403;28;19973;-77
2023/12/20 09:16:45;;;;;;;;;;;;;;;5.38;100.00;101509.38;5049922;28;20109;-77
2023/12/20 09:19:10;;;;;;;;;;;;;;;5.46;100.00;101506.06;5036867;28;20020;-77
2023/12/20 09:21:36;;;;;;;;;;;;;;;5.43;100.00;101504.31;5062990;28;19917;-77
2023/12/20 09:24:02;;;;;;;;;;;;;;;5.42;100.00;101502.53;5033573;28;20011;-77
2023/12/20 09:26:28;;;;;;;;;;;;;;;5.46;100.00;101512.16;5064483;28;19921;-78
2023/12/20 09:28:56;;;;;;;;;;;;;;;5.45;100.00;101502.59;5048666;28;19932;-78
2023/12/20 09:31:22;;;;;;;;;;;;;;;5.47;100.00;101489.63;5050575;28;20365;-76
2023/12/20 09:33:47;;;;;;;;;;;;;;;5.53;100.00;101494.94;5033872;28;19923;-77
2023/12/20 09:36:12;;;;;;;;;;;;;;;5.52;100.00;101488.00;5042103;28;19994;-77
2023/12/20 09:38:38;;;;;;;;;;;;;;;5.51;100.00;101492.31;5033632;28;20272;-76
2023/12/20 09:41:04;;;;;;;;;;;;;;;5.52;100.00;101488.00;5035141;28;19925;-76
2023/12/20 09:43:33;;;;;;;;;;;;;;;5.60;100.00;101493.34;5034021;28;20431;-77
2023/12/20 09:46:00;;;;;;;;;;;;;;;5.55;100.00;101478.53;5050007;28;20366;-76
2023/12/20 09:48:26;;;;;;;;;;;;;;;5.57;100.00;101490.69;5050433;28;20298;-77
2023/12/20 09:50:51;;;;;;;;;;;;;;;5.55;100.00;101495.88;5067005;28;19921;-76
2023/12/20 09:53:17;;;;;;;;;;;;;;;5.54;100.00;101494.97;5067088;28;20403;-77
2023/12/20 09:55:43;;;;;;;;;;;;;;;5.57;100.00;101501.09;5061693;28;19917;-77
2023/12/20 09:58:08;;;;;;;;;;;;;;;5.53;100.00;101493.25;5070245;28;19924;-78
2023/12/20 10:00:37;;;;;;;;;;;;;;;5.55;100.00;101491.53;5053059;28;20102;-77
2023/12/20 10:03:03;;;;;;;;;;;;;;;5.61;100.00;101492.50;5053527;28;20445;-76
2023/12/20 10:05:32;;;;;;;;;;;;;;;5.59;100.00;101489.88;5049506;28;20332;-78
2023/12/20 10:07:58;;;;;;;;;;;;;;;5.59;100.00;101491.59;5069424;28;19923;-74
2023/12/20 10:10:24;;;;;;;;;;;;;;;5.60;100.00;101493.34;5069488;28;20329;-75
2023/12/20 10:13:06;;;;;;;;;;;;;;;5.63;100.00;101490.81;5069713;28;19921;-77
2023/12/20 10:15:35;;;;;;;;;;;;;;;5.66;100.00;101485.66;5070067;28;20347;-77
2023/12/20 10:18:01;;;;;;;;;;;;;;;5.68;100.00;101487.44;5067596;28;19921;-77
2023/12/20 10:20:28;;;;;;;;;;;;;;;5.72;100.00;101480.59;5068789;28;19921;-76
2023/12/20 10:22:55;;;;;;;;;;;;;;;5.77;100.00;101486.72;5065499;28;19920;-75
2023/12/20 10:25:23;;;;;;;;;;;;;;;5.81;100.00;101491.16;5053889;28;19971;-75
2023/12/20 10:27:50;;;;;;;;;;;;;;;5.86;100.00;101499.03;5041186;28;19921;-74
2023/12/20 10:30:15;;;;;;;;;;;;;;;5.90;100.00;101504.34;5070826;28;19917;-76
2023/12/20 10:32:43;;;;;;;;;;;;;;;5.93;100.00;101503.50;5041132;28;19928;-76
2023/12/20 10:35:08;;;;;;;;;;;;;;;5.98;100.00;101493.22;5041915;28;19921;-78
2023/12/20 10:37:37;;;;;;;;;;;;;;;6.06;100.00;101482.09;5065614;28;20015;-76
2023/12/20 10:40:04;;;;;;;;;;;;;;;6.06;100.00;101476.00;5069692;28;19917;-77
2023/12/20 10:42:30;;;;;;;;;;;;;;;6.04;100.00;101472.50;5074435;28;20381;-77
2023/12/20 10:44:56;;;;;;;;;;;;;;;6.06;100.00;101469.09;5071291;28;19970;-77
2023/12/20 10:47:22;;;;;;;;;;;;;;;6.07;100.00;101467.34;5062635;28;19963;-78
2023/12/20 10:49:48;;;;;;;;;;;;;;;6.08;100.00;101458.72;5062152;28;20003;-77
2023/12/20 10:52:13;;;;;;;;;;;;;;;6.09;100.00;101460.44;5056825;28;20347;-76
2023/12/20 10:54:39;;;;;;;;;;;;;;;6.07;100.00;101460.41;5056405;28;19962;-76
2023/12/20 10:57:05;;;;;;;;;;;;;;;6.05;100.00;101469.94;5053052;28;19925;-75
2023/12/20 10:59:32;;;;;;;;;;;;;;;6.06;100.00;101457.78;5072685;28;19935;-75
2023/12/20 11:01:59;;;;;;;;;;;;;;;6.06;100.00;101468.19;5074708;28;19912;-76
2023/12/20 11:04:31;;;;;;;;;;;;;;;6.06;100.00;101465.59;5056344;28;19967;-76
2023/12/20 11:07:07;;;;;;;;;;;;;;;6.12;100.00;101452.69;5066095;28;19924;-75
2023/12/20 11:09:36;;;;;;;;;;;;;;;6.14;100.00;101465.75;5063991;28;19912;-75
2023/12/20 11:12:05;;;;;;;;;;;;;;;6.14;100.00;101453.59;5056891;28;19955;-75
2023/12/20 11:14:50;;;;;;;;;;;;;;;6.23;100.00;101448.56;5055566;28;19916;-75
2023/12/20 11:17:16;;;;;;;;;;;;;;;6.26;100.00;101445.09;5066959;28;19947;-74
2023/12/20 11:19:57;;;;;;;;;;;;;;;6.30;100.00;101440.84;5048300;28;20382;-78
2023/12/20 11:22:24;;;;;;;;;;;;;;;6.35;100.00;101440.06;5054631;28;19999;-77
2023/12/20 11:24:50;;;;;;;;;;;;;;;6.30;100.00;101435.63;5064688;28;19920;-76
2023/12/20 11:27:18;;;;;;;;;;;;;;;6.31;100.00;101438.25;5045184;28;19966;-78
2023/12/20 11:29:51;;;;;;;;;;;;;;;6.32;100.00;101432.19;5053133;28;20377;-76
2023/12/20 11:32:26;;;;;;;;;;;;;;;6.36;100.00;101439.19;5071221;28;19957;-75
2023/12/20 11:34:53;;;;;;;;;;;;;;;6.34;100.00;101433.09;5072337;28;19913;-76
2023/12/20 11:37:19;;;;;;;;;;;;;;;6.37;100.00;101440.06;5061451;28;19947;-76
2023/12/20 11:39:45;;;;;;;;;;;;;;;6.36;100.00;101435.72;5053055;28;19955;-77
2023/12/20 11:42:10;;;;;;;;;;;;;;;6.37;100.00;101429.66;5049537;28;19916;-77
2023/12/20 11:44:38;;;;;;;;;;;;;;;6.34;100.00;101435.69;5070296;28;19916;-77
2023/12/20 11:47:04;;;;;;;;;;;;;;;6.32;100.00;101437.41;5060404;28;19928;-77
2023/12/20 11:49:30;;;;;;;;;;;;;;;6.34;100.00;101434.81;5035425;28;19921;-77
2023/12/20 11:51:56;;;;;;;;;;;;;;;6.33;100.00;101433.06;5036665;28;19927;-78
2023/12/20 11:54:21;;;;;;;;;;;;;;;6.33;100.00;101422.66;5047676;28;19916;-77
2023/12/20 11:56:47;;;;;;;;;;;;;;;6.34;100.00;101417.47;5055484;28;19924;-77
2023/12/20 11:59:12;;;;;;;;;;;;;;;6.34;100.00;101419.22;5054966;28;19951;-77
2023/12/20 12:01:38;;;;;;;;;;;;;;;6.30;100.00;101414.81;5070785;28;20324;-78
2023/12/20 12:04:06;;;;;;;;;;;;;;;6.29;100.00;101413.91;5055539;28;20342;-77
2023/12/20 12:06:33;;;;;;;;;;;;;;;6.22;100.00;101410.34;5054129;28;19924;-78
2023/12/20 12:08:58;;;;;;;;;;;;;;;6.19;100.00;101406.81;5068807;28;19917;-76
2023/12/20 12:11:24;;;;;;;;;;;;;;;6.18;100.00;101402.47;5071916;28;19949;-77
2023/12/20 12:13:50;;;;;;;;;;;;;;;6.18;100.00;101394.69;5055013;28;19927;-77
2023/12/20 12:16:21;;;;;;;;;;;;;;;6.23;100.00;101400.81;5055096;28;20374;-77
2023/12/20 12:18:54;;;;;;;;;;;;;;;6.29;100.00;101400.03;5071582;28;19912;-77
2023/12/20 12:21:23;;;;;;;;;;;;;;;6.31;100.00;101403.53;5071418;28;19989;-77
2023/12/20 12:23:48;;;;;;;;;;;;;;;6.37;100.00;101398.41;5051842;28;19960;-75
2023/12/20 12:26:14;;;;;;;;;;;;;;;6.39;100.00;101397.59;5051655;28;19962;-75
2023/12/20 12:28:42;;;;;;;;;;;;;;;6.43;100.00;101401.09;5037620;28;19920;-75
2023/12/20 12:31:08;;;;;;;;;;;;;;;6.42;100.00;101396.75;5071040;28;19923;-78